sensor_id;sensor_type;location;lat;lon;timestamp;P1;durP1;ratioP1;P2;durP2;ratioP2
11453;SDS011;5783;55.174;61.310;2023-03-14T00:00:18;3.50;;;3.20;;
11453;SDS011;5783;55.174;61.310;2023-03-14T00:02:51;3.20;;;2.90;;
11453;SDS011;5783;55.174;61.310;2023-03-14T00:05:38;3.10;;;2.80;;
11453;SDS011;5783;55.174;61.310;2023-03-14T00:08:07;3.53;;;3.20;;
11453;SDS011;5783;55.174;61.310;2023-03-14T00:10:36;3.37;;;3.07;;
11453;SDS011;5783;55.174;61.310;2023-03-14T00:13:06;3.83;;;3.37;;
11453;SDS011;5783;55.174;61.310;2023-03-14T00:15:35;3.23;;;2.90;;
11453;SDS011;5783;55.174;61.310;2023-03-14T00:18:04;3.13;;;2.83;;
11453;SDS011;5783;55.174;61.310;2023-03-14T00:20:53;3.23;;;2.80;;
11453;SDS011;5783;55.174;61.310;2023-03-14T00:23:22;3.30;;;3.00;;
11453;SDS011;5783;55.174;61.310;2023-03-14T00:25:51;3.70;;;3.20;;
11453;SDS011;5783;55.174;61.310;2023-03-14T00:28:20;3.30;;;2.97;;
11453;SDS011;5783;55.174;61.310;2023-03-14T00:30:49;3.40;;;2.70;;
11453;SDS011;5783;55.174;61.310;2023-03-14T00:33:18;2.90;;;2.60;;
11453;SDS011;5783;55.174;61.310;2023-03-14T00:38:38;3.10;;;2.80;;
11453;SDS011;5783;55.174;61.310;2023-03-14T00:41:09;3.60;;;2.90;;
11453;SDS011;5783;55.174;61.310;2023-03-14T00:43:40;2.97;;;2.70;;
11453;SDS011;5783;55.174;61.310;2023-03-14T00:46:10;2.93;;;2.63;;
11453;SDS011;5783;55.174;61.310;2023-03-14T00:48:39;3.00;;;2.70;;
11453;SDS011;5783;55.174;61.310;2023-03-14T00:51:08;2.97;;;2.67;;
11453;SDS011;5783;55.174;61.310;2023-03-14T00:53:39;2.93;;;2.63;;
11453;SDS011;5783;55.174;61.310;2023-03-14T00:56:10;2.87;;;2.57;;
11453;SDS011;5783;55.174;61.310;2023-03-14T00:58:40;2.93;;;2.63;;
11453;SDS011;5783;55.174;61.310;2023-03-14T01:01:10;2.80;;;2.50;;
11453;SDS011;5783;55.174;61.310;2023-03-14T01:03:59;2.47;;;2.27;;
11453;SDS011;5783;55.174;61.310;2023-03-14T01:06:30;2.50;;;2.30;;
11453;SDS011;5783;55.174;61.310;2023-03-14T01:08:59;2.83;;;2.57;;
11453;SDS011;5783;55.174;61.310;2023-03-14T01:11:30;2.97;;;2.43;;
11453;SDS011;5783;55.174;61.310;2023-03-14T01:14:01;2.80;;;2.60;;
11453;SDS011;5783;55.174;61.310;2023-03-14T01:16:31;3.00;;;2.70;;
11453;SDS011;5783;55.174;61.310;2023-03-14T01:19:02;2.73;;;2.40;;
11453;SDS011;5783;55.174;61.310;2023-03-14T01:21:31;2.53;;;2.30;;
11453;SDS011;5783;55.174;61.310;2023-03-14T01:24:03;3.33;;;2.70;;
11453;SDS011;5783;55.174;61.310;2023-03-14T01:26:34;2.63;;;2.40;;
11453;SDS011;5783;55.174;61.310;2023-03-14T01:29:03;3.03;;;2.50;;
11453;SDS011;5783;55.174;61.310;2023-03-14T01:31:33;2.60;;;2.40;;
11453;SDS011;5783;55.174;61.310;2023-03-14T01:34:02;2.53;;;2.20;;
11453;SDS011;5783;55.174;61.310;2023-03-14T01:36:31;2.83;;;2.50;;
11453;SDS011;5783;55.174;61.310;2023-03-14T01:39:01;2.70;;;2.50;;
11453;SDS011;5783;55.174;61.310;2023-03-14T01:41:31;2.53;;;2.17;;
11453;SDS011;5783;55.174;61.310;2023-03-14T01:44:01;2.43;;;2.23;;
11453;SDS011;5783;55.174;61.310;2023-03-14T01:49:21;2.33;;;2.13;;
11453;SDS011;5783;55.174;61.310;2023-03-14T01:55:03;2.57;;;2.23;;
11453;SDS011;5783;55.174;61.310;2023-03-14T01:57:35;2.40;;;2.20;;
11453;SDS011;5783;55.174;61.310;2023-03-14T02:00:23;3.27;;;2.40;;
11453;SDS011;5783;55.174;61.310;2023-03-14T02:05:42;2.30;;;2.10;;
11453;SDS011;5783;55.174;61.310;2023-03-14T02:08:14;2.40;;;2.20;;
11453;SDS011;5783;55.174;61.310;2023-03-14T02:10:47;2.60;;;2.20;;
11453;SDS011;5783;55.174;61.310;2023-03-14T02:13:17;2.63;;;2.20;;
11453;SDS011;5783;55.174;61.310;2023-03-14T02:15:48;2.23;;;2.03;;
11453;SDS011;5783;55.174;61.310;2023-03-14T02:18:18;2.73;;;2.37;;
11453;SDS011;5783;55.174;61.310;2023-03-14T02:29:39;2.83;;;2.20;;
11453;SDS011;5783;55.174;61.310;2023-03-14T02:32:09;2.50;;;2.20;;
11453;SDS011;5783;55.174;61.310;2023-03-14T02:34:38;2.73;;;2.27;;
11453;SDS011;5783;55.174;61.310;2023-03-14T02:37:10;2.10;;;1.90;;
11453;SDS011;5783;55.174;61.310;2023-03-14T02:39:41;2.43;;;2.13;;
11453;SDS011;5783;55.174;61.310;2023-03-14T02:42:14;2.07;;;1.87;;
11453;SDS011;5783;55.174;61.310;2023-03-14T02:50:42;2.30;;;2.10;;
11453;SDS011;5783;55.174;61.310;2023-03-14T02:53:15;1.90;;;1.80;;
11453;SDS011;5783;55.174;61.310;2023-03-14T02:55:47;2.13;;;1.90;;
11453;SDS011;5783;55.174;61.310;2023-03-14T02:58:17;2.03;;;1.77;;
11453;SDS011;5783;55.174;61.310;2023-03-14T03:00:47;2.00;;;1.80;;
11453;SDS011;5783;55.174;61.310;2023-03-14T03:03:17;1.87;;;1.77;;
11453;SDS011;5783;55.174;61.310;2023-03-14T03:08:35;1.93;;;1.73;;
11453;SDS011;5783;55.174;61.310;2023-03-14T03:11:04;1.63;;;1.53;;
11453;SDS011;5783;55.174;61.310;2023-03-14T03:13:34;1.80;;;1.60;;
11453;SDS011;5783;55.174;61.310;2023-03-14T03:16:03;1.60;;;1.50;;
11453;SDS011;5783;55.174;61.310;2023-03-14T03:18:33;1.67;;;1.57;;
11453;SDS011;5783;55.174;61.310;2023-03-14T03:21:02;1.60;;;1.50;;
11453;SDS011;5783;55.174;61.310;2023-03-14T03:23:34;1.70;;;1.60;;
11453;SDS011;5783;55.174;61.310;2023-03-14T03:26:03;1.60;;;1.50;;
11453;SDS011;5783;55.174;61.310;2023-03-14T03:28:33;2.40;;;1.40;;
11453;SDS011;5783;55.174;61.310;2023-03-14T03:33:51;1.57;;;1.47;;
11453;SDS011;5783;55.174;61.310;2023-03-14T03:36:20;1.40;;;1.30;;
11453;SDS011;5783;55.174;61.310;2023-03-14T03:38:50;1.87;;;1.40;;
11453;SDS011;5783;55.174;61.310;2023-03-14T03:41:19;1.50;;;1.40;;
11453;SDS011;5783;55.174;61.310;2023-03-14T03:43:49;1.50;;;1.40;;
11453;SDS011;5783;55.174;61.310;2023-03-14T03:46:19;1.30;;;1.20;;
11453;SDS011;5783;55.174;61.310;2023-03-14T03:48:53;1.30;;;1.20;;
11453;SDS011;5783;55.174;61.310;2023-03-14T03:51:39;1.60;;;1.30;;
11453;SDS011;5783;55.174;61.310;2023-03-14T03:54:08;1.47;;;1.23;;
11453;SDS011;5783;55.174;61.310;2023-03-14T03:56:37;1.07;;;1.03;;
11453;SDS011;5783;55.174;61.310;2023-03-14T03:59:07;1.30;;;1.20;;
11453;SDS011;5783;55.174;61.310;2023-03-14T04:01:36;1.03;;;0.93;;
11453;SDS011;5783;55.174;61.310;2023-03-14T04:04:05;1.23;;;1.13;;
11453;SDS011;5783;55.174;61.310;2023-03-14T04:06:34;1.10;;;1.10;;
11453;SDS011;5783;55.174;61.310;2023-03-14T04:09:04;0.97;;;0.97;;
11453;SDS011;5783;55.174;61.310;2023-03-14T04:11:34;2.20;;;0.97;;
11453;SDS011;5783;55.174;61.310;2023-03-14T04:14:03;1.10;;;0.80;;
11453;SDS011;5783;55.174;61.310;2023-03-14T04:16:33;1.20;;;1.10;;
11453;SDS011;5783;55.174;61.310;2023-03-14T04:19:02;0.80;;;0.80;;
11453;SDS011;5783;55.174;61.310;2023-03-14T04:21:32;0.90;;;0.90;;
11453;SDS011;5783;55.174;61.310;2023-03-14T04:24:01;1.40;;;1.30;;
11453;SDS011;5783;55.174;61.310;2023-03-14T04:26:30;1.00;;;1.00;;
11453;SDS011;5783;55.174;61.310;2023-03-14T04:28:59;1.10;;;1.00;;
11453;SDS011;5783;55.174;61.310;2023-03-14T04:31:28;1.10;;;1.00;;
11453;SDS011;5783;55.174;61.310;2023-03-14T04:33:57;1.10;;;1.00;;
11453;SDS011;5783;55.174;61.310;2023-03-14T04:36:26;1.30;;;1.20;;
11453;SDS011;5783;55.174;61.310;2023-03-14T04:38:56;1.63;;;1.10;;
11453;SDS011;5783;55.174;61.310;2023-03-14T04:41:25;1.47;;;1.37;;
11453;SDS011;5783;55.174;61.310;2023-03-14T04:43:54;1.27;;;1.17;;
11453;SDS011;5783;55.174;61.310;2023-03-14T04:46:24;1.30;;;1.20;;
11453;SDS011;5783;55.174;61.310;2023-03-14T04:48:53;1.30;;;1.20;;
11453;SDS011;5783;55.174;61.310;2023-03-14T04:51:22;1.23;;;1.13;;
11453;SDS011;5783;55.174;61.310;2023-03-14T04:53:53;1.37;;;1.27;;
11453;SDS011;5783;55.174;61.310;2023-03-14T04:56:22;1.10;;;1.10;;
11453;SDS011;5783;55.174;61.310;2023-03-14T04:58:51;1.00;;;1.00;;
11453;SDS011;5783;55.174;61.310;2023-03-14T05:01:21;1.20;;;1.10;;
11453;SDS011;5783;55.174;61.310;2023-03-14T05:03:50;0.90;;;0.90;;
11453;SDS011;5783;55.174;61.310;2023-03-14T05:06:19;1.67;;;1.23;;
11453;SDS011;5783;55.174;61.310;2023-03-14T05:08:48;1.50;;;1.30;;
11453;SDS011;5783;55.174;61.310;2023-03-14T05:11:17;1.33;;;1.23;;
11453;SDS011;5783;55.174;61.310;2023-03-14T05:13:46;1.20;;;1.10;;
11453;SDS011;5783;55.174;61.310;2023-03-14T05:16:17;1.37;;;1.10;;
11453;SDS011;5783;55.174;61.310;2023-03-14T05:18:46;3.33;;;1.30;;
11453;SDS011;5783;55.174;61.310;2023-03-14T05:21:15;1.40;;;1.20;;
11453;SDS011;5783;55.174;61.310;2023-03-14T05:23:44;2.43;;;1.13;;
11453;SDS011;5783;55.174;61.310;2023-03-14T05:26:13;1.10;;;1.00;;
11453;SDS011;5783;55.174;61.310;2023-03-14T05:28:43;0.80;;;0.80;;
11453;SDS011;5783;55.174;61.310;2023-03-14T05:31:14;1.77;;;1.23;;
11453;SDS011;5783;55.174;61.310;2023-03-14T05:33:43;2.33;;;1.70;;
11453;SDS011;5783;55.174;61.310;2023-03-14T05:36:12;2.20;;;1.90;;
11453;SDS011;5783;55.174;61.310;2023-03-14T05:38:41;2.63;;;2.07;;
11453;SDS011;5783;55.174;61.310;2023-03-14T05:41:10;3.60;;;2.70;;
11453;SDS011;5783;55.174;61.310;2023-03-14T05:43:39;4.57;;;3.00;;
11453;SDS011;5783;55.174;61.310;2023-03-14T05:46:08;5.73;;;4.07;;
11453;SDS011;5783;55.174;61.310;2023-03-14T05:48:38;8.40;;;4.97;;
11453;SDS011;5783;55.174;61.310;2023-03-14T05:51:07;8.03;;;6.17;;
11453;SDS011;5783;55.174;61.310;2023-03-14T05:53:36;9.90;;;6.70;;
11453;SDS011;5783;55.174;61.310;2023-03-14T05:56:06;10.83;;;7.53;;
11453;SDS011;5783;55.174;61.310;2023-03-14T05:58:35;10.30;;;7.67;;
11453;SDS011;5783;55.174;61.310;2023-03-14T06:01:05;12.83;;;8.63;;
11453;SDS011;5783;55.174;61.310;2023-03-14T06:03:35;9.67;;;7.03;;
11453;SDS011;5783;55.174;61.310;2023-03-14T06:06:04;10.67;;;7.43;;
11453;SDS011;5783;55.174;61.310;2023-03-14T06:08:34;8.60;;;6.47;;
11453;SDS011;5783;55.174;61.310;2023-03-14T06:11:03;8.40;;;6.27;;
11453;SDS011;5783;55.174;61.310;2023-03-14T06:13:32;6.20;;;4.70;;
11453;SDS011;5783;55.174;61.310;2023-03-14T06:16:02;6.83;;;5.33;;
11453;SDS011;5783;55.174;61.310;2023-03-14T06:18:31;8.23;;;5.93;;
11453;SDS011;5783;55.174;61.310;2023-03-14T06:21:01;7.50;;;5.90;;
11453;SDS011;5783;55.174;61.310;2023-03-14T06:23:30;7.27;;;5.73;;
11453;SDS011;5783;55.174;61.310;2023-03-14T06:25:59;8.07;;;6.40;;
11453;SDS011;5783;55.174;61.310;2023-03-14T06:28:29;9.60;;;7.70;;
11453;SDS011;5783;55.174;61.310;2023-03-14T06:30:58;12.20;;;8.63;;
11453;SDS011;5783;55.174;61.310;2023-03-14T06:33:28;10.97;;;8.77;;
11453;SDS011;5783;55.174;61.310;2023-03-14T06:35:57;10.30;;;8.90;;
11453;SDS011;5783;55.174;61.310;2023-03-14T06:38:26;12.40;;;8.77;;
11453;SDS011;5783;55.174;61.310;2023-03-14T06:40:56;11.60;;;8.23;;
11453;SDS011;5783;55.174;61.310;2023-03-14T06:43:26;8.83;;;7.27;;
11453;SDS011;5783;55.174;61.310;2023-03-14T06:45:55;8.93;;;7.07;;
11453;SDS011;5783;55.174;61.310;2023-03-14T06:48:24;9.13;;;6.83;;
11453;SDS011;5783;55.174;61.310;2023-03-14T06:50:54;7.07;;;5.70;;
11453;SDS011;5783;55.174;61.310;2023-03-14T06:53:23;9.37;;;6.00;;
11453;SDS011;5783;55.174;61.310;2023-03-14T06:55:52;7.40;;;5.47;;
11453;SDS011;5783;55.174;61.310;2023-03-14T06:58:21;8.10;;;4.60;;
11453;SDS011;5783;55.174;61.310;2023-03-14T07:00:51;6.73;;;4.57;;
11453;SDS011;5783;55.174;61.310;2023-03-14T07:03:22;5.27;;;4.10;;
11453;SDS011;5783;55.174;61.310;2023-03-14T07:05:52;6.07;;;4.40;;
11453;SDS011;5783;55.174;61.310;2023-03-14T07:08:21;5.50;;;3.90;;
11453;SDS011;5783;55.174;61.310;2023-03-14T07:10:50;7.10;;;3.33;;
11453;SDS011;5783;55.174;61.310;2023-03-14T07:13:19;5.07;;;3.50;;
11453;SDS011;5783;55.174;61.310;2023-03-14T07:15:49;6.33;;;3.47;;
11453;SDS011;5783;55.174;61.310;2023-03-14T07:18:18;4.67;;;3.20;;
11453;SDS011;5783;55.174;61.310;2023-03-14T07:20:47;3.77;;;2.90;;
11453;SDS011;5783;55.174;61.310;2023-03-14T07:23:16;4.77;;;2.70;;
11453;SDS011;5783;55.174;61.310;2023-03-14T07:25:45;3.30;;;2.70;;
11453;SDS011;5783;55.174;61.310;2023-03-14T07:28:14;3.73;;;2.60;;
11453;SDS011;5783;55.174;61.310;2023-03-14T07:30:45;3.50;;;2.80;;
11453;SDS011;5783;55.174;61.310;2023-03-14T07:33:14;7.40;;;2.83;;
11453;SDS011;5783;55.174;61.310;2023-03-14T07:35:44;4.03;;;2.80;;
11453;SDS011;5783;55.174;61.310;2023-03-14T07:38:15;4.50;;;3.20;;
11453;SDS011;5783;55.174;61.310;2023-03-14T07:40:45;4.13;;;3.50;;
11453;SDS011;5783;55.174;61.310;2023-03-14T07:43:14;4.27;;;3.20;;
11453;SDS011;5783;55.174;61.310;2023-03-14T07:45:45;5.83;;;3.97;;
11453;SDS011;5783;55.174;61.310;2023-03-14T07:48:14;5.87;;;2.93;;
11453;SDS011;5783;55.174;61.310;2023-03-14T07:50:43;4.17;;;3.20;;
11453;SDS011;5783;55.174;61.310;2023-03-14T07:53:15;5.03;;;3.63;;
11453;SDS011;5783;55.174;61.310;2023-03-14T07:55:44;4.03;;;3.63;;
11453;SDS011;5783;55.174;61.310;2023-03-14T07:58:14;4.10;;;3.70;;
11453;SDS011;5783;55.174;61.310;2023-03-14T08:00:43;5.07;;;3.83;;
11453;SDS011;5783;55.174;61.310;2023-03-14T08:03:12;7.30;;;4.23;;
11453;SDS011;5783;55.174;61.310;2023-03-14T08:05:42;7.63;;;4.50;;
11453;SDS011;5783;55.174;61.310;2023-03-14T08:08:11;4.73;;;4.00;;
11453;SDS011;5783;55.174;61.310;2023-03-14T08:10:41;6.40;;;3.97;;
11453;SDS011;5783;55.174;61.310;2023-03-14T08:13:10;4.30;;;3.70;;
11453;SDS011;5783;55.174;61.310;2023-03-14T08:15:39;5.10;;;4.23;;
11453;SDS011;5783;55.174;61.310;2023-03-14T08:18:08;5.80;;;3.80;;
11453;SDS011;5783;55.174;61.310;2023-03-14T08:20:37;4.80;;;3.93;;
11453;SDS011;5783;55.174;61.310;2023-03-14T08:23:07;4.67;;;3.67;;
11453;SDS011;5783;55.174;61.310;2023-03-14T08:25:37;5.43;;;3.67;;
11453;SDS011;5783;55.174;61.310;2023-03-14T08:28:06;4.80;;;3.73;;
11453;SDS011;5783;55.174;61.310;2023-03-14T08:30:35;3.90;;;3.20;;
11453;SDS011;5783;55.174;61.310;2023-03-14T08:33:12;3.97;;;3.33;;
11453;SDS011;5783;55.174;61.310;2023-03-14T08:38:22;4.03;;;2.90;;
11453;SDS011;5783;55.174;61.310;2023-03-14T08:43:40;3.10;;;2.57;;
11453;SDS011;5783;55.174;61.310;2023-03-14T08:46:09;2.73;;;2.50;;
11453;SDS011;5783;55.174;61.310;2023-03-14T08:48:38;3.73;;;2.73;;
11453;SDS011;5783;55.174;61.310;2023-03-14T08:51:08;2.90;;;2.50;;
11453;SDS011;5783;55.174;61.310;2023-03-14T08:53:40;2.87;;;2.10;;
11453;SDS011;5783;55.174;61.310;2023-03-14T08:56:09;2.50;;;1.90;;
11453;SDS011;5783;55.174;61.310;2023-03-14T08:58:38;2.20;;;2.00;;
11453;SDS011;5783;55.174;61.310;2023-03-14T09:01:08;2.53;;;1.67;;
11453;SDS011;5783;55.174;61.310;2023-03-14T09:03:38;2.20;;;2.00;;
11453;SDS011;5783;55.174;61.310;2023-03-14T09:06:09;2.00;;;1.80;;
11453;SDS011;5783;55.174;61.310;2023-03-14T09:08:38;1.97;;;1.60;;
11453;SDS011;5783;55.174;61.310;2023-03-14T09:11:08;3.50;;;1.70;;
11453;SDS011;5783;55.174;61.310;2023-03-14T09:13:37;1.60;;;1.50;;
11453;SDS011;5783;55.174;61.310;2023-03-14T09:16:26;1.60;;;1.50;;
11453;SDS011;5783;55.174;61.310;2023-03-14T09:18:55;1.83;;;1.43;;
11453;SDS011;5783;55.174;61.310;2023-03-14T09:21:44;1.20;;;1.10;;
11453;SDS011;5783;55.174;61.310;2023-03-14T09:24:13;3.03;;;1.40;;
11453;SDS011;5783;55.174;61.310;2023-03-14T09:26:42;1.90;;;1.10;;
11453;SDS011;5783;55.174;61.310;2023-03-14T09:29:12;1.27;;;1.17;;
11453;SDS011;5783;55.174;61.310;2023-03-14T09:31:41;1.40;;;1.30;;
11453;SDS011;5783;55.174;61.310;2023-03-14T09:34:10;1.70;;;1.40;;
11453;SDS011;5783;55.174;61.310;2023-03-14T09:36:39;1.30;;;1.20;;
11453;SDS011;5783;55.174;61.310;2023-03-14T09:39:10;1.77;;;1.23;;
11453;SDS011;5783;55.174;61.310;2023-03-14T09:41:41;1.23;;;1.13;;
11453;SDS011;5783;55.174;61.310;2023-03-14T09:47:04;1.10;;;1.00;;
11453;SDS011;5783;55.174;61.310;2023-03-14T10:00:56;2.63;;;1.00;;
11453;SDS011;5783;55.174;61.310;2023-03-14T10:06:17;3.53;;;1.50;;
11453;SDS011;5783;55.174;61.310;2023-03-14T10:08:46;1.47;;;1.33;;
11453;SDS011;5783;55.174;61.310;2023-03-14T10:11:16;1.50;;;1.40;;
11453;SDS011;5783;55.174;61.310;2023-03-14T10:16:38;1.60;;;1.50;;
11453;SDS011;5783;55.174;61.310;2023-03-14T10:19:26;1.20;;;1.10;;
11453;SDS011;5783;55.174;61.310;2023-03-14T10:21:55;1.63;;;1.43;;
11453;SDS011;5783;55.174;61.310;2023-03-14T10:30:06;0.90;;;0.90;;
11453;SDS011;5783;55.174;61.310;2023-03-14T10:32:36;1.17;;;1.00;;
11453;SDS011;5783;55.174;61.310;2023-03-14T10:40:50;1.30;;;0.97;;
11453;SDS011;5783;55.174;61.310;2023-03-14T10:48:43;1.47;;;1.20;;
11453;SDS011;5783;55.174;61.310;2023-03-14T10:54:04;1.37;;;1.27;;
11453;SDS011;5783;55.174;61.310;2023-03-14T10:59:42;2.23;;;1.77;;
11453;SDS011;5783;55.174;61.310;2023-03-14T11:08:45;4.67;;;2.77;;
11453;SDS011;5783;55.174;61.310;2023-03-14T11:17:00;6.43;;;5.10;;
11453;SDS011;5783;55.174;61.310;2023-03-14T11:22:59;9.50;;;6.50;;
11453;SDS011;5783;55.174;61.310;2023-03-14T11:28:39;10.30;;;6.67;;
11453;SDS011;5783;55.174;61.310;2023-03-14T11:34:06;12.70;;;9.10;;
11453;SDS011;5783;55.174;61.310;2023-03-14T11:42:54;9.30;;;6.73;;
11453;SDS011;5783;55.174;61.310;2023-03-14T11:45:25;8.43;;;6.30;;
11453;SDS011;5783;55.174;61.310;2023-03-14T11:51:07;7.63;;;5.83;;
11453;SDS011;5783;55.174;61.310;2023-03-14T11:57:03;7.33;;;5.83;;
11453;SDS011;5783;55.174;61.310;2023-03-14T12:09:00;5.30;;;3.93;;
11453;SDS011;5783;55.174;61.310;2023-03-14T12:20:40;3.93;;;3.00;;
11453;SDS011;5783;55.174;61.310;2023-03-14T12:23:10;2.70;;;2.50;;
11453;SDS011;5783;55.174;61.310;2023-03-14T12:25:42;2.90;;;2.60;;
11453;SDS011;5783;55.174;61.310;2023-03-14T12:30:44;2.90;;;2.60;;
11453;SDS011;5783;55.174;61.310;2023-03-14T12:36:03;2.60;;;2.20;;
11453;SDS011;5783;55.174;61.310;2023-03-14T12:41:44;2.20;;;2.00;;
11453;SDS011;5783;55.174;61.310;2023-03-14T12:49:55;2.10;;;1.60;;
11453;SDS011;5783;55.174;61.310;2023-03-14T13:01:33;1.70;;;1.60;;
11453;SDS011;5783;55.174;61.310;2023-03-14T13:04:07;2.67;;;1.80;;
11453;SDS011;5783;55.174;61.310;2023-03-14T13:10:03;2.03;;;1.40;;
11453;SDS011;5783;55.174;61.310;2023-03-14T13:16:01;2.50;;;1.40;;
11453;SDS011;5783;55.174;61.310;2023-03-14T13:21:23;2.00;;;1.40;;
11453;SDS011;5783;55.174;61.310;2023-03-14T13:27:01;2.70;;;1.50;;
11453;SDS011;5783;55.174;61.310;2023-03-14T13:29:31;1.57;;;1.30;;
11453;SDS011;5783;55.174;61.310;2023-03-14T13:32:02;1.60;;;1.50;;
11453;SDS011;5783;55.174;61.310;2023-03-14T13:34:33;1.60;;;1.40;;
11453;SDS011;5783;55.174;61.310;2023-03-14T13:37:03;1.50;;;1.40;;
11453;SDS011;5783;55.174;61.310;2023-03-14T13:39:33;1.43;;;1.23;;
11453;SDS011;5783;55.174;61.310;2023-03-14T13:42:02;1.00;;;1.00;;
11453;SDS011;5783;55.174;61.310;2023-03-14T13:44:33;1.30;;;1.20;;
11453;SDS011;5783;55.174;61.310;2023-03-14T13:47:09;1.43;;;1.20;;
11453;SDS011;5783;55.174;61.310;2023-03-14T13:49:55;1.83;;;1.50;;
11453;SDS011;5783;55.174;61.310;2023-03-14T13:55:17;1.50;;;1.40;;
11453;SDS011;5783;55.174;61.310;2023-03-14T13:57:48;1.20;;;1.10;;
11453;SDS011;5783;55.174;61.310;2023-03-14T14:00:37;1.10;;;1.00;;
11453;SDS011;5783;55.174;61.310;2023-03-14T14:03:08;1.00;;;0.97;;
11453;SDS011;5783;55.174;61.310;2023-03-14T14:05:38;1.30;;;1.20;;
11453;SDS011;5783;55.174;61.310;2023-03-14T14:08:10;1.40;;;1.30;;
11453;SDS011;5783;55.174;61.310;2023-03-14T14:10:40;1.20;;;1.10;;
11453;SDS011;5783;55.174;61.310;2023-03-14T14:13:10;1.20;;;1.10;;
11453;SDS011;5783;55.174;61.310;2023-03-14T14:15:42;0.90;;;0.90;;
11453;SDS011;5783;55.174;61.310;2023-03-14T14:18:14;1.20;;;1.10;;
11453;SDS011;5783;55.174;61.310;2023-03-14T14:20:47;1.53;;;1.40;;
11453;SDS011;5783;55.174;61.310;2023-03-14T14:23:19;2.07;;;1.20;;
11453;SDS011;5783;55.174;61.310;2023-03-14T14:25:52;1.37;;;1.20;;
11453;SDS011;5783;55.174;61.310;2023-03-14T14:36:52;1.20;;;1.10;;
11453;SDS011;5783;55.174;61.310;2023-03-14T14:41:54;1.87;;;1.10;;
11453;SDS011;5783;55.174;61.310;2023-03-14T14:47:13;1.63;;;1.10;;
11453;SDS011;5783;55.174;61.310;2023-03-14T14:49:44;1.47;;;1.30;;
11453;SDS011;5783;55.174;61.310;2023-03-14T14:52:15;1.47;;;1.33;;
11453;SDS011;5783;55.174;61.310;2023-03-14T14:54:48;1.60;;;0.97;;
11453;SDS011;5783;55.174;61.310;2023-03-14T14:57:38;2.03;;;1.30;;
11453;SDS011;5783;55.174;61.310;2023-03-14T15:00:09;1.47;;;1.10;;
11453;SDS011;5783;55.174;61.310;2023-03-14T15:03:15;1.20;;;1.10;;
11453;SDS011;5783;55.174;61.310;2023-03-14T15:05:31;1.30;;;1.10;;
11453;SDS011;5783;55.174;61.310;2023-03-14T15:08:02;1.00;;;0.90;;
11453;SDS011;5783;55.174;61.310;2023-03-14T15:10:31;1.77;;;1.00;;
11453;SDS011;5783;55.174;61.310;2023-03-14T15:13:00;0.83;;;0.83;;
11453;SDS011;5783;55.174;61.310;2023-03-14T15:15:29;0.77;;;0.77;;
11453;SDS011;5783;55.174;61.310;2023-03-14T15:18:00;1.83;;;1.03;;
11453;SDS011;5783;55.174;61.310;2023-03-14T15:20:29;1.03;;;0.93;;
11453;SDS011;5783;55.174;61.310;2023-03-14T15:22:59;0.93;;;0.83;;
11453;SDS011;5783;55.174;61.310;2023-03-14T15:25:28;0.83;;;0.83;;
11453;SDS011;5783;55.174;61.310;2023-03-14T15:27:57;1.90;;;1.03;;
11453;SDS011;5783;55.174;61.310;2023-03-14T15:30:26;1.10;;;0.97;;
11453;SDS011;5783;55.174;61.310;2023-03-14T15:32:55;1.13;;;0.90;;
11453;SDS011;5783;55.174;61.310;2023-03-14T15:35:24;1.20;;;1.10;;
11453;SDS011;5783;55.174;61.310;2023-03-14T15:37:53;1.30;;;1.20;;
11453;SDS011;5783;55.174;61.310;2023-03-14T15:40:23;1.13;;;0.87;;
11453;SDS011;5783;55.174;61.310;2023-03-14T15:42:53;1.93;;;1.10;;
11453;SDS011;5783;55.174;61.310;2023-03-14T15:45:22;1.13;;;0.93;;
11453;SDS011;5783;55.174;61.310;2023-03-14T15:47:51;1.20;;;1.10;;
11453;SDS011;5783;55.174;61.310;2023-03-14T15:50:20;1.70;;;1.00;;
11453;SDS011;5783;55.174;61.310;2023-03-14T15:52:51;1.13;;;1.03;;
11453;SDS011;5783;55.174;61.310;2023-03-14T15:55:22;0.70;;;0.70;;
11453;SDS011;5783;55.174;61.310;2023-03-14T15:57:51;1.23;;;0.70;;
11453;SDS011;5783;55.174;61.310;2023-03-14T16:00:21;1.30;;;1.20;;
11453;SDS011;5783;55.174;61.310;2023-03-14T16:02:50;1.07;;;1.00;;
11453;SDS011;5783;55.174;61.310;2023-03-14T16:05:20;1.00;;;1.00;;
11453;SDS011;5783;55.174;61.310;2023-03-14T16:07:49;1.17;;;1.07;;
11453;SDS011;5783;55.174;61.310;2023-03-14T16:10:18;1.20;;;1.10;;
11453;SDS011;5783;55.174;61.310;2023-03-14T16:12:48;1.03;;;0.90;;
11453;SDS011;5783;55.174;61.310;2023-03-14T16:15:17;0.73;;;0.73;;
11453;SDS011;5783;55.174;61.310;2023-03-14T16:17:47;1.27;;;0.90;;
11453;SDS011;5783;55.174;61.310;2023-03-14T16:20:37;1.87;;;1.00;;
11453;SDS011;5783;55.174;61.310;2023-03-14T16:23:06;0.83;;;0.83;;
11453;SDS011;5783;55.174;61.310;2023-03-14T16:25:35;1.07;;;0.80;;
11453;SDS011;5783;55.174;61.310;2023-03-14T16:28:05;1.20;;;1.10;;
11453;SDS011;5783;55.174;61.310;2023-03-14T16:30:34;1.10;;;0.97;;
11453;SDS011;5783;55.174;61.310;2023-03-14T16:33:03;0.83;;;0.83;;
11453;SDS011;5783;55.174;61.310;2023-03-14T16:35:34;1.10;;;1.00;;
11453;SDS011;5783;55.174;61.310;2023-03-14T16:38:04;1.07;;;0.97;;
11453;SDS011;5783;55.174;61.310;2023-03-14T16:40:34;1.10;;;1.00;;
11453;SDS011;5783;55.174;61.310;2023-03-14T16:43:03;0.73;;;0.73;;
11453;SDS011;5783;55.174;61.310;2023-03-14T16:45:32;1.07;;;0.97;;
11453;SDS011;5783;55.174;61.310;2023-03-14T16:48:04;0.90;;;0.90;;
11453;SDS011;5783;55.174;61.310;2023-03-14T16:50:33;1.33;;;1.13;;
11453;SDS011;5783;55.174;61.310;2023-03-14T16:53:02;0.93;;;0.70;;
11453;SDS011;5783;55.174;61.310;2023-03-14T16:55:31;1.23;;;0.77;;
11453;SDS011;5783;55.174;61.310;2023-03-14T16:58:00;1.10;;;0.73;;
11453;SDS011;5783;55.174;61.310;2023-03-14T17:00:29;0.80;;;0.70;;
11453;SDS011;5783;55.174;61.310;2023-03-14T17:02:59;0.90;;;0.63;;
11453;SDS011;5783;55.174;61.310;2023-03-14T17:05:28;1.03;;;0.93;;
11453;SDS011;5783;55.174;61.310;2023-03-14T17:07:57;0.90;;;0.90;;
11453;SDS011;5783;55.174;61.310;2023-03-14T17:10:26;0.60;;;0.60;;
11453;SDS011;5783;55.174;61.310;2023-03-14T17:12:55;1.10;;;1.00;;
11453;SDS011;5783;55.174;61.310;2023-03-14T17:15:24;0.97;;;0.77;;
11453;SDS011;5783;55.174;61.310;2023-03-14T17:17:54;0.77;;;0.77;;
11453;SDS011;5783;55.174;61.310;2023-03-14T17:20:23;1.10;;;1.00;;
11453;SDS011;5783;55.174;61.310;2023-03-14T17:22:52;1.10;;;1.00;;
11453;SDS011;5783;55.174;61.310;2023-03-14T17:25:21;1.33;;;0.97;;
11453;SDS011;5783;55.174;61.310;2023-03-14T17:27:51;1.00;;;0.90;;
11453;SDS011;5783;55.174;61.310;2023-03-14T17:30:20;0.90;;;0.90;;
11453;SDS011;5783;55.174;61.310;2023-03-14T17:32:49;1.10;;;1.00;;
11453;SDS011;5783;55.174;61.310;2023-03-14T17:35:18;1.07;;;0.97;;
11453;SDS011;5783;55.174;61.310;2023-03-14T17:37:47;1.00;;;0.90;;
11453;SDS011;5783;55.174;61.310;2023-03-14T17:40:17;0.90;;;0.90;;
11453;SDS011;5783;55.174;61.310;2023-03-14T17:42:46;1.00;;;0.90;;
11453;SDS011;5783;55.174;61.310;2023-03-14T17:45:15;1.17;;;1.00;;
11453;SDS011;5783;55.174;61.310;2023-03-14T17:47:44;1.17;;;0.93;;
11453;SDS011;5783;55.174;61.310;2023-03-14T17:50:14;1.17;;;1.07;;
11453;SDS011;5783;55.174;61.310;2023-03-14T17:52:43;1.30;;;1.20;;
11453;SDS011;5783;55.174;61.310;2023-03-14T17:55:12;1.10;;;0.93;;
11453;SDS011;5783;55.174;61.310;2023-03-14T17:57:41;0.77;;;0.77;;
11453;SDS011;5783;55.174;61.310;2023-03-14T18:00:11;1.37;;;1.17;;
11453;SDS011;5783;55.174;61.310;2023-03-14T18:02:41;1.37;;;1.10;;
11453;SDS011;5783;55.174;61.310;2023-03-14T18:05:10;1.10;;;1.00;;
11453;SDS011;5783;55.174;61.310;2023-03-14T18:07:39;0.77;;;0.77;;
11453;SDS011;5783;55.174;61.310;2023-03-14T18:10:09;1.10;;;1.00;;
11453;SDS011;5783;55.174;61.310;2023-03-14T18:12:41;1.30;;;1.20;;